Time;durP1;ratioP1;P1;durP2;ratioP2;P2;SDS_P1;SDS_P2;PMS_P1;PMS_P2;Temp;Humidity;BMP_temperature;BMP_pressure;BME280_temperature;BME280_humidity;BME280_pressure;Samples;Min_cycle;Max_cycle;Signal;HPM_P1;HPM_P2
2022/12/15 00:40:15;;;;;;;6.10;5.67;;;;;;;20.93;33.54;94240.44;6216047;28;103372;-61
2022/12/15 00:43:18;;;;;;;5.77;5.37;;;;;;;20.96;33.28;94231.03;6235775;28;103139;-61
2022/12/15 01:20:16;;;;;;;5.13;4.73;;;;;;;20.92;33.39;94151.91;6202262;28;104290;-61
2022/12/15 01:23:21;;;;;;;5.50;5.10;;;;;;;20.93;33.49;94168.63;6227360;28;104029;-62
2022/12/15 01:26:24;;;;;;;5.37;4.90;;;;;;;20.91;33.37;94160.19;6212011;28;103054;-61
2022/12/15 01:29:27;;;;;;;5.60;5.20;;;;;;;20.91;33.27;94158.31;6219181;28;104705;-61
2022/12/15 01:32:31;;;;;;;5.47;5.07;;;;;;;20.92;33.12;94146.56;6217111;28;103076;-61
2022/12/15 01:35:34;;;;;;;4.97;4.67;;;;;;;20.93;33.37;94150.78;6219521;28;104021;-61
2022/12/15 01:38:38;;;;;;;4.77;4.40;;;;;;;20.92;33.24;94162.53;6222846;28;104469;-61
2022/12/15 01:41:40;;;;;;;5.27;4.87;;;;;;;;;;6211530;28;104388;-62
2022/12/15 01:44:47;;;;;;;5.80;5.30;;;;;;;20.98;32.93;94165.00;6193800;28;104300;-61
2022/12/15 01:47:50;;;;;;;5.27;4.87;;;;;;;20.97;33.34;94142.94;6214613;28;104531;-62
2022/12/15 01:51:01;;;;;;;4.80;4.50;;;;;;;20.98;33.16;94135.75;6216554;28;103431;-61
2022/12/15 01:54:09;;;;;;;5.80;5.40;;;;;;;20.97;33.19;94121.69;6201924;27;104479;-61
2022/12/15 01:57:25;;;;;;;5.27;4.87;;;;;;;20.89;32.97;94139.25;6218840;28;103502;-61
2022/12/15 02:00:29;;;;;;;5.43;5.03;;;;;;;20.98;33.17;94111.81;6218648;28;104131;-61
2022/12/15 02:03:32;;;;;;;5.30;4.90;;;;;;;20.91;33.12;94097.16;6200205;28;103050;-61
2022/12/15 02:06:37;;;;;;;5.43;4.97;;;;;;;20.96;32.84;94090.09;6201062;28;103223;-61
2022/12/15 02:09:42;;;;;;;5.17;4.77;;;;;;;20.97;33.08;94118.25;6212994;28;104284;-61
2022/12/15 02:12:54;;;;;;;4.37;4.07;;;;;;;20.95;33.38;94061.94;6213195;28;103028;-61
2022/12/15 02:16:04;;;;;;;5.00;4.60;;;;;;;20.92;33.30;94055.38;6208960;28;103223;-61
2022/12/15 02:19:27;;;;;;;4.33;4.03;;;;;;;20.93;33.15;94067.56;6217563;28;103312;-61
2022/12/15 02:22:47;;;;;;;4.87;4.50;;;;;;;20.92;33.05;94095.28;6223073;27;104069;-61
2022/12/15 02:26:28;;;;;;;4.80;4.40;;;;;;;20.90;33.43;94063.69;6219113;28;104104;-61
2022/12/15 02:29:58;;;;;;;4.40;4.10;;;;;;;20.90;33.17;94021.13;6197630;28;103240;-61
2022/12/15 02:33:13;;;;;;;4.80;4.40;;;;;;;20.90;33.03;93994.53;6228325;28;103122;-61
2022/12/15 02:36:26;;;;;;;4.40;4.10;;;;;;;20.89;33.02;94022.25;6214620;28;103255;-61
2022/12/15 02:39:29;;;;;;;4.40;4.10;;;;;;;20.90;33.16;94049.59;6218523;28;103067;-61
2022/12/15 02:42:35;;;;;;;4.07;3.77;;;;;;;20.89;33.32;94002.84;6231348;28;104689;-63
2022/12/15 02:45:50;;;;;;;4.40;4.03;;;;;;;20.90;32.98;94025.69;6207671;28;103213;-63
2022/12/15 02:49:05;;;;;;;4.20;3.90;;;;;;;20.88;33.27;94041.97;6213280;28;103064;-62
2022/12/15 02:52:17;;;;;;;4.60;4.30;;;;;;;20.87;33.12;94053.69;6200231;28;103638;-63
2022/12/15 02:55:27;;;;;;;4.27;3.97;;;;;;;20.88;33.23;94052.59;6214870;28;103095;-63
2022/12/15 02:58:41;;;;;;;4.60;4.20;;;;;;;20.89;33.13;94080.75;6207228;28;103180;-63
2022/12/15 03:01:49;;;;;;;3.90;3.70;;;;;;;20.89;33.07;94067.44;6204252;28;103200;-63
2022/12/15 03:04:55;;;;;;;4.03;3.73;;;;;;;20.88;32.95;94079.19;6206318;28;104077;-63
2022/12/15 03:07:58;;;;;;;4.10;3.80;;;;;;;20.89;33.04;94085.28;6214645;28;104192;-63
2022/12/15 03:11:02;;;;;;;3.70;3.40;;;;;;;20.87;33.20;94043.06;6226353;28;103094;-63
2022/12/15 03:14:05;;;;;;;4.33;4.03;;;;;;;20.89;33.20;94050.72;6208973;28;103128;-63
2022/12/15 03:17:08;;;;;;;3.60;3.30;;;;;;;20.89;32.99;94064.78;6210628;28;104111;-63
2022/12/15 03:20:12;;;;;;;4.17;3.87;;;;;;;20.90;33.28;94074.31;6209392;28;103434;-63
2022/12/15 03:23:15;;;;;;;4.10;3.80;;;;;;;20.89;33.14;94066.66;6205505;28;103973;-63
2022/12/15 03:26:18;;;;;;;3.40;3.20;;;;;;;20.90;33.05;94066.34;6199231;28;103098;-63
2022/12/15 03:29:22;;;;;;;3.70;3.40;;;;;;;20.89;33.27;94071.97;6210028;28;103225;-64
2022/12/15 03:32:25;;;;;;;3.30;3.10;;;;;;;20.90;33.15;94073.53;6226272;28;103931;-62
2022/12/15 03:35:32;;;;;;;3.20;3.00;;;;;;;20.90;33.13;94073.53;6211444;28;104281;-64
2022/12/15 03:38:35;;;;;;;3.77;3.47;;;;;;;20.89;32.96;94062.13;6205209;28;103806;-63
2022/12/15 03:41:38;;;;;;;3.70;3.40;;;;;;;20.91;33.05;94069.78;6223540;28;103340;-64
2022/12/15 03:44:41;;;;;;;3.40;3.10;;;;;;;20.84;33.06;94059.66;6226623;28;103144;-64
2022/12/15 03:47:45;;;;;;;3.50;3.30;;;;;;;20.91;32.98;94067.13;6221013;28;104514;-64
2022/12/15 03:50:49;;;;;;;3.50;3.20;;;;;;;20.90;33.13;94078.84;6212678;28;103103;-63
2022/12/15 03:53:53;;;;;;;3.13;2.93;;;;;;;20.89;32.88;94099.34;6215388;28;103381;-63
2022/12/15 03:56:56;;;;;;;3.30;3.10;;;;;;;20.91;33.04;94112.34;6226120;28;104113;-63
2022/12/15 03:59:59;;;;;;;2.90;2.70;;;;;;;20.90;32.85;94106.22;6223740;28;103165;-63
2022/12/15 04:03:02;;;;;;;3.03;2.83;;;;;;;20.90;32.95;94105.44;6211768;28;104119;-63
2022/12/15 04:06:07;;;;;;;2.87;2.67;;;;;;;20.90;33.23;94116.88;6218639;28;103510;-63
2022/12/15 04:09:10;;;;;;;3.10;2.90;;;;;;;20.90;33.25;94135.47;6225001;28;104082;-63
2022/12/15 04:12:13;;;;;;;3.70;3.50;;;;;;;20.90;32.93;94140.81;6203136;27;103543;-62
2022/12/15 04:15:16;;;;;;;2.97;2.77;;;;;;;20.91;33.12;94154.88;6209476;28;103402;-63
2022/12/15 04:18:20;;;;;;;2.90;2.70;;;;;;;20.91;32.66;94146.91;6222796;28;103086;-63
2022/12/15 04:21:23;;;;;;;3.40;3.10;;;;;;;20.89;33.12;94162.41;6224674;28;104328;-63
2022/12/15 05:34:47;;;;;;;7.13;6.43;;;;;;;20.96;34.44;94262.94;6237508;28;103210;-62
2022/12/15 05:37:50;;;;;;;7.03;6.53;;;;;;;20.93;34.65;94246.53;6237205;28;104204;-62
2022/12/15 05:40:53;;;;;;;6.20;5.60;;;;;;;20.92;34.46;94265.47;6234589;28;103095;-62
2022/12/15 05:43:57;;;;;;;6.43;5.93;;;;;;;20.92;34.39;94281.44;6223838;28;103712;-62
2022/12/15 05:47:00;;;;;;;6.60;6.10;;;;;;;20.92;34.18;94276.09;6234241;28;103576;-62
2022/12/15 05:50:04;;;;;;;6.70;6.10;;;;;;;20.92;34.27;94290.19;6234404;28;102922;-63
2022/12/15 05:53:07;;;;;;;5.80;5.40;;;;;;;20.93;34.09;94301.59;6227381;27;103799;-62
2022/12/15 05:56:12;;;;;;;5.60;5.10;;;;;;;20.93;34.09;94304.25;6235343;28;104434;-62
2022/12/15 05:59:16;;;;;;;5.83;5.33;;;;;;;20.85;34.08;94307.72;6235277;27;103504;-62
2022/12/15 06:02:19;;;;;;;5.13;4.70;;;;;;;20.93;34.28;94318.34;6236145;28;103447;-62
2022/12/15 06:05:23;;;;;;;5.00;4.70;;;;;;;20.96;34.41;94332.88;6226434;28;104219;-62
2022/12/15 06:08:26;;;;;;;5.10;4.70;;;;;;;20.97;34.00;94347.75;6236995;28;104320;-62
2022/12/15 06:11:29;;;;;;;5.20;4.70;;;;;;;20.98;34.16;94364.47;6236523;28;104284;-62
2022/12/15 06:14:35;;;;;;;5.40;4.90;;;;;;;20.97;33.93;94344.31;6236464;28;103114;-63
2022/12/15 06:17:38;;;;;;;5.70;5.20;;;;;;;20.99;33.95;94350.09;6227701;27;103938;-62
2022/12/15 06:20:41;;;;;;;4.93;4.53;;;;;;;21.00;33.82;94359.63;6236885;28;103258;-62
2022/12/15 06:23:44;;;;;;;5.30;4.90;;;;;;;20.99;34.04;94363.38;6236538;28;103315;-63
2022/12/15 06:26:47;;;;;;;5.27;4.77;;;;;;;20.99;34.08;94369.47;6232084;27;104252;-62
2022/12/15 06:29:53;;;;;;;5.23;4.77;;;;;;;20.98;33.95;94367.91;6230533;27;104213;-63
2022/12/15 06:32:56;;;;;;;5.10;4.70;;;;;;;20.98;33.82;94369.81;6236447;28;103268;-64
2022/12/15 06:36:03;;;;;;;5.30;4.90;;;;;;;20.99;33.98;94379.34;6236270;28;103206;-64
2022/12/15 06:39:08;;;;;;;5.17;4.77;;;;;;;20.98;33.77;94381.22;6226711;27;104198;-64
2022/12/15 06:42:11;;;;;;;4.80;4.50;;;;;;;20.97;33.68;94384.97;6235613;28;103818;-64
2022/12/15 06:45:15;;;;;;;4.77;4.37;;;;;;;20.97;33.71;94408.91;6236092;28;103425;-64
2022/12/15 06:48:19;;;;;;;4.80;4.40;;;;;;;20.91;33.81;94395.00;6236119;28;103269;-64
2022/12/15 06:51:22;;;;;;;4.90;4.50;;;;;;;20.97;33.67;94400.16;6225631;28;103785;-64
2022/12/15 06:54:25;;;;;;;4.47;4.13;;;;;;;20.96;33.56;94401.25;6236308;28;103428;-64
2022/12/15 06:57:28;;;;;;;5.20;4.80;;;;;;;20.97;33.63;94408.13;6235751;28;103240;-62
2022/12/15 07:00:33;;;;;;;4.73;4.33;;;;;;;20.93;33.99;94400.78;6234948;28;104096;-63
2022/12/15 07:03:39;;;;;;;4.77;4.37;;;;;;;21.02;33.83;94406.13;6226484;28;104083;-63
2022/12/15 07:06:44;;;;;;;5.30;4.90;;;;;;;21.12;33.32;94411.13;6235944;28;104358;-62
2022/12/15 07:09:47;;;;;;;4.80;4.40;;;;;;;21.29;32.99;94425.50;6234481;28;103101;-62
2022/12/15 07:12:50;;;;;;;5.33;4.93;;;;;;;21.25;33.19;94429.91;6225524;27;103217;-62
2022/12/15 07:15:54;;;;;;;4.40;4.10;;;;;;;21.58;32.80;94433.63;6234593;28;103271;-62
2022/12/15 07:18:57;;;;;;;5.00;4.60;;;;;;;21.61;32.64;94440.19;6235316;28;103177;-62
2022/12/15 07:22:00;;;;;;;4.60;4.20;;;;;;;21.48;32.74;94439.25;6235886;28;104373;-63
2022/12/15 07:25:04;;;;;;;4.77;4.37;;;;;;;21.47;32.80;94451.00;6225157;27;103297;-62
2022/12/15 07:28:07;;;;;;;5.43;5.03;;;;;;;21.42;32.81;94457.28;6235245;28;103229;-63
2022/12/15 07:31:12;;;;;;;4.37;4.00;;;;;;;21.39;32.96;94457.13;6234425;28;103034;-62
2022/12/15 07:34:15;;;;;;;5.10;4.70;;;;;;;21.45;33.29;94461.97;6235025;28;103141;-62
2022/12/15 07:37:18;;;;;;;4.60;4.30;;;;;;;21.42;33.10;94473.25;6224491;27;104103;-62
2022/12/15 07:40:21;;;;;;;4.80;4.40;;;;;;;21.40;32.97;94474.66;6235468;28;104036;-62
2022/12/15 07:43:24;;;;;;;4.90;4.50;;;;;;;21.38;32.98;94474.97;6234516;28;103427;-62
2022/12/15 07:46:28;;;;;;;4.30;4.00;;;;;;;21.37;33.12;94473.44;6230163;27;103595;-62
2022/12/15 07:49:32;;;;;;;4.73;4.33;;;;;;;21.34;33.22;94468.72;6230150;28;103139;-62
2022/12/15 07:52:35;;;;;;;4.60;4.30;;;;;;;21.32;32.97;94472.78;6234896;28;104170;-63
2022/12/15 07:55:38;;;;;;;4.47;4.07;;;;;;;21.30;33.17;94481.09;6235057;28;102976;-62
2022/12/15 07:59:01;;;;;;;4.17;3.87;;;;;;;21.30;33.34;94486.41;6223618;28;102792;-62
2022/12/15 08:02:05;;;;;;;4.33;4.03;;;;;;;21.29;33.32;94503.47;6233886;28;103130;-63
2022/12/15 08:05:09;;;;;;;4.80;4.40;;;;;;;21.19;33.05;94496.59;6234794;28;103529;-62
2022/12/15 08:08:13;;;;;;;4.47;4.13;;;;;;;21.24;33.50;94508.97;6235036;28;103440;-63
2022/12/15 08:11:18;;;;;;;4.20;3.90;;;;;;;21.26;33.24;94511.31;6223120;28;103148;-63
2022/12/15 08:14:21;;;;;;;4.37;4.07;;;;;;;21.26;33.33;94513.97;6234065;28;102743;-62
2022/12/15 08:17:26;;;;;;;4.40;4.10;;;;;;;21.29;33.37;94516.00;6235168;28;104132;-62
2022/12/15 08:20:30;;;;;;;4.67;4.27;;;;;;;21.34;33.46;94508.66;6229375;28;104036;-63
2022/12/15 08:23:33;;;;;;;3.60;3.40;;;;;;;21.38;33.25;94514.91;6233384;27;104191;-62
2022/12/15 08:26:37;;;;;;;4.20;3.90;;;;;;;21.40;33.51;94523.38;6238987;28;103342;-62
2022/12/15 08:29:41;;;;;;;4.73;4.33;;;;;;;21.41;33.67;94524.91;6238771;28;103399;-63
2022/12/15 08:32:55;;;;;;;4.07;3.77;;;;;;;21.42;34.05;94537.13;6227003;28;103189;-63
2022/12/15 08:35:59;;;;;;;4.87;4.47;;;;;;;21.41;33.84;94543.56;6238766;28;104088;-63
2022/12/15 08:39:03;;;;;;;4.70;4.30;;;;;;;21.41;33.95;94532.91;6238756;28;103021;-63
2022/12/15 08:42:06;;;;;;;4.50;4.10;;;;;;;21.39;33.88;94537.78;6237728;28;103146;-63
2022/12/15 08:45:11;;;;;;;4.10;3.80;;;;;;;21.39;34.08;94539.66;6228321;28;103298;-63
2022/12/15 08:48:15;;;;;;;4.00;3.70;;;;;;;21.34;34.28;94537.13;6238857;28;104183;-63
2022/12/15 08:51:20;;;;;;;4.00;3.70;;;;;;;21.41;34.04;94542.78;6237748;28;103220;-63
2022/12/15 08:54:23;;;;;;;4.60;4.20;;;;;;;21.34;34.47;94535.28;6233705;28;103223;-63
2022/12/15 08:57:26;;;;;;;4.40;4.10;;;;;;;21.43;34.52;94545.91;6232635;28;104223;-63
2022/12/15 09:00:29;;;;;;;6.07;5.00;;;;;;;21.42;34.48;94541.69;6238341;28;103226;-62
2022/12/15 09:03:34;;;;;;;4.73;4.27;;;;;;;21.35;34.44;94544.81;6236674;28;103028;-63
2022/12/15 09:06:38;;;;;;;3.93;3.63;;;;;;;21.30;34.42;94533.53;6227678;27;106475;-62
2022/12/15 09:09:41;;;;;;;4.57;4.27;;;;;;;21.29;34.05;94542.59;6237658;28;103090;-62
2022/12/15 09:12:45;;;;;;;4.60;4.20;;;;;;;21.27;34.30;94545.59;6237473;28;103254;-62
2022/12/15 09:15:56;;;;;;;4.30;4.00;;;;;;;21.25;34.25;94536.34;6237407;28;102775;-62
2022/12/15 09:19:13;;;;;;;4.90;4.50;;;;;;;21.23;34.29;94533.22;6226276;27;103235;-62
2022/12/15 09:22:16;;;;;;;4.37;3.97;;;;;;;21.22;34.11;94548.41;6238182;28;104247;-62
2022/12/15 09:25:19;;;;;;;4.63;4.33;;;;;;;21.21;34.40;94542.31;6237984;28;104259;-62
2022/12/15 09:28:22;;;;;;;4.97;4.60;;;;;;;21.09;34.15;94526.16;6234376;28;104114;-61
2022/12/15 09:31:28;;;;;;;4.73;4.33;;;;;;;21.20;34.25;94545.28;6232707;28;104156;-62
2022/12/15 09:34:33;;;;;;;5.00;4.60;;;;;;;21.20;34.17;94545.28;6235802;27;103260;-62
2022/12/15 09:37:36;;;;;;;4.77;4.37;;;;;;;21.20;34.15;94561.25;6237854;28;103082;-62
2022/12/15 09:40:39;;;;;;;4.60;4.30;;;;;;;21.16;33.90;94560.28;6227488;28;104953;-62
2022/12/15 09:43:49;;;;;;;4.50;4.20;;;;;;;21.17;34.27;94556.50;6236722;28;103002;-62
2022/12/15 09:47:04;;;;;;;4.57;4.17;;;;;;;21.18;34.29;94556.22;6237244;28;103377;-62
2022/12/15 09:50:14;;;;;;;4.70;4.40;;;;;;;21.19;33.90;94557.00;6237454;28;104242;-62
2022/12/15 09:53:18;;;;;;;4.70;4.30;;;;;;;21.16;34.38;94552.28;6227043;27;103192;-63
2022/12/15 09:56:46;;;;;;;5.00;4.60;;;;;;;21.18;34.05;94558.91;6236831;28;105034;-62
2022/12/15 10:00:08;;;;;;;5.13;4.63;;;;;;;21.19;34.28;94570.31;6237364;28;102987;-62
2022/12/15 10:03:23;;;;;;;5.40;5.00;;;;;;;21.20;33.91;94562.03;6227166;28;103586;-62
2022/12/15 10:06:33;;;;;;;5.13;4.73;;;;;;;21.21;33.85;94557.47;6235807;28;103221;-62
2022/12/15 10:09:37;;;;;;;5.07;4.67;;;;;;;21.22;34.11;94553.72;6237128;28;103217;-62
2022/12/15 10:12:42;;;;;;;5.30;4.90;;;;;;;21.18;34.11;94547.47;6236874;28;103118;-62
2022/12/15 10:16:05;;;;;;;4.93;4.53;;;;;;;21.24;34.28;94556.06;6227410;28;104422;-62
2022/12/15 10:19:14;;;;;;;5.30;4.80;;;;;;;21.22;34.06;94545.75;6236261;28;103047;-62
2022/12/15 10:22:23;;;;;;;5.03;4.63;;;;;;;21.21;34.03;94555.59;6236991;28;103486;-62
2022/12/15 10:25:29;;;;;;;5.30;4.90;;;;;;;21.20;34.01;94550.59;6231520;28;103184;-62
2022/12/15 10:29:02;;;;;;;5.77;5.37;;;;;;;21.22;33.96;94548.41;6231541;28;103039;-62
2022/12/15 10:32:16;;;;;;;5.20;4.80;;;;;;;21.21;34.08;94552.16;6236722;28;104136;-62
2022/12/15 10:35:22;;;;;;;5.23;4.83;;;;;;;21.20;33.95;94558.56;6236716;28;103406;-62
2022/12/15 10:38:33;;;;;;;5.13;4.70;;;;;;;21.20;34.21;94566.56;6226009;27;104266;-62
2022/12/15 10:41:36;;;;;;;5.27;4.87;;;;;;;21.21;34.10;94581.44;6236494;28;104315;-62
2022/12/15 10:44:42;;;;;;;5.60;5.10;;;;;;;21.14;34.00;94571.22;6236106;28;103320;-62
2022/12/15 10:48:01;;;;;;;5.37;4.97;;;;;;;21.19;34.00;94567.66;6232731;27;102963;-62
2022/12/15 10:51:23;;;;;;;5.70;5.30;;;;;;;21.18;34.03;94555.44;6229764;28;103041;-62
2022/12/15 10:54:35;;;;;;;5.90;5.40;;;;;;;21.18;34.06;94561.56;6235500;28;103052;-62
2022/12/15 10:57:38;;;;;;;5.70;5.20;;;;;;;21.18;33.98;94571.41;6235686;28;103258;-65
2022/12/15 11:00:41;;;;;;;5.67;5.17;;;;;;;21.18;34.05;94568.75;6225193;28;103525;-64
2022/12/15 11:03:44;;;;;;;5.50;4.97;;;;;;;21.17;33.87;94573.28;6235007;28;103212;-63
2022/12/15 11:06:56;;;;;;;5.20;4.77;;;;;;;21.17;34.09;94572.47;6235906;28;104622;-63
2022/12/15 11:10:08;;;;;;;6.27;5.67;;;;;;;21.18;33.83;94569.53;6234316;28;103348;-64
2022/12/15 11:13:14;;;;;;;5.90;5.50;;;;;;;21.19;34.05;94562.34;6225399;27;104000;-62
2022/12/15 11:16:19;;;;;;;5.40;4.90;;;;;;;21.20;34.22;94562.03;6235709;28;103354;-62
2022/12/15 11:19:31;;;;;;;5.43;4.93;;;;;;;21.21;34.22;94557.47;6235745;28;103008;-64
2022/12/15 11:22:42;;;;;;;5.63;5.13;;;;;;;21.21;34.06;94563.59;6227850;28;103167;-63
2022/12/15 11:25:55;;;;;;;5.70;5.20;;;;;;;21.21;33.77;94555.59;6233999;28;103667;-63
2022/12/15 11:29:07;;;;;;;5.40;5.00;;;;;;;21.22;34.01;94564.38;6236028;28;104095;-63
2022/12/15 11:32:12;;;;;;;4.87;4.47;;;;;;;21.15;34.03;94556.03;6235527;28;103254;-63
2022/12/15 11:35:22;;;;;;;5.33;4.93;;;;;;;21.24;33.99;94570.16;6223977;28;103589;-63
2022/12/15 11:38:32;;;;;;;5.90;5.40;;;;;;;21.25;33.85;94566.41;6235913;28;104105;-63
2022/12/15 11:41:44;;;;;;;5.47;4.97;;;;;;;21.27;33.81;94571.41;6234141;28;103108;-63
2022/12/15 11:44:56;;;;;;;5.90;5.40;;;;;;;21.26;33.72;94580.50;6230172;27;103192;-63
2022/12/15 11:48:09;;;;;;;5.33;4.93;;;;;;;21.29;33.95;94575.31;6229442;28;104181;-62
2022/12/15 11:51:17;;;;;;;4.87;4.57;;;;;;;21.31;33.87;94577.66;6235556;28;103084;-63
2022/12/15 11:54:25;;;;;;;5.57;5.13;;;;;;;21.29;33.96;94569.22;6235282;28;103592;-63
2022/12/15 11:57:53;;;;;;;5.40;5.00;;;;;;;21.30;33.86;94576.88;6227255;27;103310;-63
2022/12/15 12:01:07;;;;;;;5.30;4.90;;;;;;;21.32;33.84;94579.22;6239188;28;103342;-63
2022/12/15 12:04:20;;;;;;;5.07;4.67;;;;;;;21.30;33.86;94584.09;6239118;28;103150;-63
2022/12/15 12:07:37;;;;;;;5.70;5.20;;;;;;;21.31;33.87;94580.34;6235551;28;103415;-63
2022/12/15 12:10:53;;;;;;;5.50;5.00;;;;;;;21.32;34.19;94584.56;6233841;28;104031;-63
2022/12/15 12:14:16;;;;;;;5.50;5.10;;;;;;;21.29;34.13;94588.63;6238777;28;103150;-63
2022/12/15 12:17:32;;;;;;;5.30;4.90;;;;;;;21.30;34.00;94586.75;6238535;28;103099;-63
2022/12/15 12:20:43;;;;;;;5.60;5.10;;;;;;;21.28;34.25;94595.03;6227751;27;103937;-63
2022/12/15 12:23:54;;;;;;;5.37;4.97;;;;;;;21.28;33.80;94591.59;6238982;28;103093;-63
2022/12/15 12:27:01;;;;;;;5.27;4.87;;;;;;;21.28;33.92;94581.75;6239320;28;104221;-63
2022/12/15 12:30:13;;;;;;;5.27;4.87;;;;;;;21.29;33.87;94611.78;6236726;28;104714;-63
2022/12/15 12:33:23;;;;;;;5.10;4.70;;;;;;;21.25;33.96;94600.22;6232704;28;103427;-63
2022/12/15 12:36:26;;;;;;;5.57;5.10;;;;;;;21.26;34.14;94607.88;6239403;28;103114;-63
2022/12/15 12:39:31;;;;;;;5.23;4.83;;;;;;;21.26;34.07;94618.53;6238032;28;103242;-63
2022/12/15 12:42:43;;;;;;;5.30;4.93;;;;;;;21.28;33.85;94629.66;6229017;27;106113;-63
2022/12/15 12:45:54;;;;;;;5.03;4.63;;;;;;;21.15;33.93;94593.28;6237578;28;103176;-63
2022/12/15 12:49:03;;;;;;;4.70;4.40;;;;;;;21.17;33.94;94620.38;6238070;28;103288;-63
2022/12/15 12:52:19;;;;;;;5.70;5.13;;;;;;;21.24;34.27;94631.38;6238397;28;103126;-63
2022/12/15 12:55:29;;;;;;;5.03;4.63;;;;;;;21.25;34.15;94624.16;6227739;27;103763;-63
2022/12/15 12:58:34;;;;;;;4.83;4.43;;;;;;;21.23;34.32;94632.47;6238917;28;104267;-63
2022/12/15 13:01:39;;;;;;;5.40;4.97;;;;;;;21.23;34.07;94624.47;6238064;28;103556;-63
2022/12/15 13:04:43;;;;;;;5.40;5.00;;;;;;;21.15;33.96;94635.88;6232537;28;104162;-63
2022/12/15 13:07:55;;;;;;;4.87;4.50;;;;;;;21.21;34.35;94632.78;6234447;28;103147;-63
2022/12/15 13:11:37;;;;;;;5.33;4.93;;;;;;;21.20;34.31;94635.75;6237488;28;102935;-63
2022/12/15 13:14:47;;;;;;;4.80;4.40;;;;;;;21.12;34.18;94629.28;6238072;28;103506;-63
2022/12/15 13:18:17;;;;;;;5.03;4.63;;;;;;;21.24;34.45;94633.25;6225877;28;103050;-63
2022/12/15 13:21:52;;;;;;;5.00;4.60;;;;;;;21.01;34.25;94611.25;6237616;28;103015;-63
2022/12/15 13:24:56;;;;;;;5.53;5.03;;;;;;;21.19;34.50;94650.16;6237761;28;104387;-63
2022/12/15 13:28:11;;;;;;;5.13;4.73;;;;;;;21.16;34.31;94648.06;6226943;27;104315;-63
2022/12/15 13:31:29;;;;;;;4.83;4.43;;;;;;;21.18;34.33;94653.91;6237327;28;103268;-63
2022/12/15 13:34:38;;;;;;;5.97;5.40;;;;;;;21.16;34.48;94648.84;6237610;28;103042;-63
2022/12/15 13:37:50;;;;;;;5.20;4.30;;;;;;;21.15;34.67;94659.81;6237645;28;104171;-63
2022/12/15 13:40:54;;;;;;;5.13;4.73;;;;;;;21.17;34.32;94646.97;6226617;28;103042;-63
2022/12/15 13:43:58;;;;;;;5.27;4.87;;;;;;;21.16;33.98;94654.19;6237441;28;103371;-63
2022/12/15 13:47:09;;;;;;;5.33;4.93;;;;;;;21.16;34.50;94650.75;6236919;28;103084;-63
2022/12/15 13:50:23;;;;;;;5.50;5.00;;;;;;;21.16;34.23;94654.19;6226803;28;103127;-63
2022/12/15 13:53:28;;;;;;;5.67;5.17;;;;;;;21.16;34.55;94662.16;6236829;28;103277;-63
2022/12/15 13:57:01;;;;;;;5.10;4.70;;;;;;;21.12;34.42;94655.91;6237396;28;103249;-63
2022/12/15 14:00:06;;;;;;;5.03;4.63;;;;;;;21.08;34.44;94648.84;6224096;28;103281;-63
2022/12/15 14:03:12;;;;;;;4.97;4.67;;;;;;;21.16;34.37;94662.16;6226358;28;103039;-63
2022/12/15 14:06:16;;;;;;;4.73;4.33;;;;;;;21.15;34.42;94668.56;6236956;28;103365;-63
2022/12/15 14:09:24;;;;;;;4.73;4.43;;;;;;;21.10;34.40;94667.94;6236020;28;103277;-63
2022/12/15 14:12:27;;;;;;;5.37;4.97;;;;;;;21.14;34.40;94680.31;6231572;28;103276;-63
2022/12/15 14:15:32;;;;;;;5.50;5.10;;;;;;;21.12;34.59;94676.41;6231106;28;103236;-63
2022/12/15 14:18:37;;;;;;;4.30;4.00;;;;;;;21.14;34.45;94690.19;6236484;27;103492;-63
2022/12/15 14:21:49;;;;;;;4.87;4.47;;;;;;;21.13;34.18;94685.94;6235428;28;103202;-63
2022/12/15 14:24:58;;;;;;;4.40;4.10;;;;;;;21.15;34.49;94702.38;6225802;28;103038;-63
2022/12/15 14:28:01;;;;;;;5.20;4.80;;;;;;;21.13;34.25;94699.25;6236465;28;103117;-63
2022/12/15 14:31:14;;;;;;;5.23;4.83;;;;;;;21.12;34.21;94703.00;6236096;28;102997;-63
2022/12/15 14:34:24;;;;;;;5.37;4.97;;;;;;;21.13;34.05;94704.56;6236460;28;103134;-63
2022/12/15 14:37:29;;;;;;;4.63;4.33;;;;;;;21.12;34.27;94709.09;6200033;28;104247;-63
2022/12/15 14:40:36;;;;;;;5.07;4.67;;;;;;;21.11;34.31;94718.19;6211458;28;103383;-63
2022/12/15 14:43:40;;;;;;;5.50;5.10;;;;;;;21.12;34.27;94719.75;6212039;28;103486;-63
2022/12/15 14:46:46;;;;;;;5.30;4.90;;;;;;;21.05;34.53;94727.41;6205203;28;103286;-63
2022/12/15 14:49:51;;;;;;;5.77;5.30;;;;;;;21.11;34.53;94728.03;6209736;28;103885;-63
2022/12/15 14:53:01;;;;;;;5.50;5.00;;;;;;;21.12;34.48;94732.28;6209868;28;103163;-63
2022/12/15 14:56:20;;;;;;;5.43;5.03;;;;;;;21.12;34.46;94732.28;6211159;28;102881;-63
2022/12/15 14:59:34;;;;;;;5.70;5.30;;;;;;;21.08;34.35;94734.75;6200196;27;103283;-63
2022/12/15 15:02:39;;;;;;;5.97;5.47;;;;;;;21.12;34.38;94749.03;6211273;28;103158;-63
2022/12/15 15:05:43;;;;;;;5.53;5.03;;;;;;;21.13;34.59;94752.47;6211338;28;105965;-64
2022/12/15 15:08:50;;;;;;;5.73;5.30;;;;;;;21.11;34.81;94744.78;6209592;28;103044;-65
2022/12/15 15:11:56;;;;;;;5.50;5.10;;;;;;;21.08;34.78;94757.94;6203927;28;104106;-64
2022/12/15 15:15:02;;;;;;;6.73;6.13;;;;;;;21.02;34.97;94743.16;6210810;28;103085;-64
2022/12/15 15:18:05;;;;;;;6.43;5.87;;;;;;;21.09;35.26;94759.50;6211328;28;103083;-65
2022/12/15 15:21:17;;;;;;;7.10;6.50;;;;;;;21.10;34.88;94766.38;6200356;28;103062;-65
2022/12/15 15:24:25;;;;;;;6.90;6.30;;;;;;;21.12;35.00;94766.84;6210248;28;106877;-65
2022/12/15 15:27:35;;;;;;;7.30;6.70;;;;;;;21.15;35.68;94767.03;6211226;28;103512;-66
2022/12/15 15:30:43;;;;;;;8.40;7.70;;;;;;;21.24;36.84;94779.59;6209611;28;103078;-64
2022/12/15 15:33:46;;;;;;;8.80;7.93;;;;;;;21.29;36.78;94780.25;6201223;28;103986;-65
2022/12/15 15:36:49;;;;;;;8.47;7.63;;;;;;;21.26;36.97;94778.19;6210393;28;103142;-64
2022/12/15 15:39:55;;;;;;;9.80;9.00;;;;;;;21.23;37.05;94781.47;6210690;28;103947;-64
2022/12/15 15:42:58;;;;;;;9.20;8.00;;;;;;;21.19;37.66;94780.53;6208177;28;103802;-65
2022/12/15 15:46:05;;;;;;;9.70;8.90;;;;;;;21.22;37.56;94782.56;6204116;28;102927;-65
2022/12/15 15:49:12;;;;;;;9.10;8.40;;;;;;;21.21;37.66;94786.31;6210204;28;102986;-64
2022/12/15 15:52:15;;;;;;;10.00;9.10;;;;;;;21.19;37.74;94775.19;6210196;28;106655;-65
2022/12/15 15:55:25;;;;;;;9.83;8.93;;;;;;;21.16;38.16;94803.19;6200053;28;103174;-64
2022/12/15 15:58:29;;;;;;;10.03;9.23;;;;;;;21.17;37.89;94774.69;6210028;28;103014;-65
2022/12/15 16:01:32;;;;;;;10.63;9.73;;;;;;;21.17;37.90;94794.13;6209420;28;103175;-65
2022/12/15 16:04:39;;;;;;;11.20;10.20;;;;;;;21.16;38.02;94787.22;6209589;28;104045;-64
2022/12/15 16:07:44;;;;;;;10.73;9.83;;;;;;;21.17;37.98;94802.13;6196224;28;102774;-66
2022/12/15 16:10:49;;;;;;;11.47;10.47;;;;;;;21.18;37.83;94797.59;6208357;28;103224;-65
2022/12/15 16:13:52;;;;;;;11.90;10.90;;;;;;;21.15;37.81;94812.25;6208531;28;103147;-65
2022/12/15 16:16:57;;;;;;;12.47;11.40;;;;;;;21.15;37.97;94814.13;6209576;28;103107;-65
2022/12/15 16:20:00;;;;;;;14.20;12.83;;;;;;;21.16;37.57;94818.38;6201304;28;103263;-65
2022/12/15 16:23:07;;;;;;;13.93;12.73;;;;;;;21.16;37.81;94803.19;6208961;28;103631;-65
2022/12/15 16:26:15;;;;;;;13.40;12.23;;;;;;;21.17;37.26;94811.94;6220980;28;103295;-65
2022/12/15 16:29:20;;;;;;;14.37;13.07;;;;;;;21.15;37.54;94814.13;6211396;28;103101;-64
2022/12/15 16:32:23;;;;;;;15.53;14.13;;;;;;;21.21;37.52;94815.59;6216736;28;103198;-64
2022/12/15 16:35:27;;;;;;;17.33;15.63;;;;;;;21.23;37.90;94820.59;6217183;28;103208;-65
2022/12/15 16:38:31;;;;;;;17.30;15.60;;;;;;;21.26;38.40;94818.13;6208520;28;102975;-63
2022/12/15 16:41:36;;;;;;;17.90;16.30;;;;;;;21.17;38.60;94811.94;6211377;27;103244;-63
2022/12/15 16:44:39;;;;;;;22.03;20.03;;;;;;;21.36;38.66;94833.06;6211572;28;102966;-64
2022/12/15 16:47:42;;;;;;;22.93;20.73;;;;;;;21.36;38.60;94841.81;6219399;28;103950;-63
2022/12/15 16:50:49;;;;;;;24.00;21.90;;;;;;;21.35;38.83;94840.25;6212398;28;103293;-64
2022/12/15 16:53:53;;;;;;;25.60;23.13;;;;;;;21.39;38.88;94848.41;6198710;28;103945;-63